createdAt,value
2022-09-20T00:01:32.212Z,12.20
2022-09-20T00:04:05.021Z,12.20
2022-09-20T00:06:33.008Z,12.10
2022-09-20T00:09:01.419Z,12.10
2022-09-20T00:11:34.846Z,12.10
2022-09-20T00:14:06.043Z,12.10
2022-09-20T00:16:38.081Z,12.00
2022-09-20T00:19:06.309Z,12.00
2022-09-20T00:21:36.387Z,12.10
2022-09-20T00:24:04.185Z,12.00
2022-09-20T00:26:31.127Z,12.00
2022-09-20T00:28:58.982Z,12.00
2022-09-20T00:31:26.137Z,12.00
2022-09-20T00:34:16.553Z,11.90
2022-09-20T00:36:44.969Z,11.80
2022-09-20T00:39:15.162Z,11.60
2022-09-20T00:41:42.369Z,11.60
2022-09-20T00:45:03.602Z,11.60
2022-09-20T00:47:55.381Z,11.60
2022-09-20T00:50:44.924Z,11.60
2022-09-20T00:53:18.864Z,11.50
2022-09-20T00:56:04.451Z,11.50
2022-09-20T00:58:37.479Z,11.40
2022-09-20T01:01:05.958Z,11.40
2022-09-20T01:03:35.671Z,11.40
2022-09-20T01:06:07.699Z,11.40
2022-09-20T01:08:36.412Z,11.30
2022-09-20T01:11:03.582Z,11.30
2022-09-20T01:13:31.061Z,11.40
2022-09-20T01:16:01.253Z,11.30
2022-09-20T01:18:29.938Z,11.30
2022-09-20T01:20:57.625Z,11.20
2022-09-20T01:23:35.172Z,11.20
2022-09-20T01:26:34.137Z,11.20
2022-09-20T01:29:44.156Z,11.30
2022-09-20T01:32:20.927Z,11.20
2022-09-20T01:34:54.517Z,11.10
2022-09-20T01:37:28.941Z,11.20
2022-09-20T01:40:24.069Z,11.20
2022-09-20T01:43:06.228Z,11.20
2022-09-20T01:45:33.327Z,11.20
2022-09-20T01:48:11.965Z,11.20
2022-09-20T01:51:11.551Z,11.20
2022-09-20T01:53:53.268Z,11.20
2022-09-20T01:57:00.674Z,11.20
2022-09-20T02:00:00.722Z,11.20
2022-09-20T02:02:42.459Z,11.20
2022-09-20T02:05:48.351Z,11.20
2022-09-20T02:08:33.469Z,11.10
2022-09-20T02:11:19.261Z,11.10
2022-09-20T02:14:02.109Z,11.20
2022-09-20T02:16:45.133Z,11.10
2022-09-20T02:19:24.081Z,11.10
2022-09-20T02:22:10.332Z,11.10
2022-09-20T02:25:14.698Z,11.10
2022-09-20T02:28:13.173Z,11.00
2022-09-20T02:31:17.134Z,11.10
2022-09-20T02:34:32.296Z,11.00
2022-09-20T02:37:29.946Z,11.00
2022-09-20T02:40:14.665Z,11.10
2022-09-20T02:42:53.272Z,11.10
2022-09-20T02:46:04.120Z,11.00
2022-09-20T02:49:13.766Z,11.00
2022-09-20T02:51:51.985Z,11.00
2022-09-20T02:54:53.698Z,11.00
2022-09-20T02:57:41.679Z,10.90
2022-09-20T03:00:25.264Z,10.90
2022-09-20T03:03:04.136Z,10.90
2022-09-20T03:05:58.242Z,10.90
2022-09-20T03:08:43.903Z,10.90
2022-09-20T03:11:16.339Z,10.90
2022-09-20T03:14:11.860Z,10.90
2022-09-20T03:17:00.174Z,10.90
2022-09-20T03:19:54.883Z,10.80
2022-09-20T03:23:09.796Z,10.70
2022-09-20T03:26:33.317Z,10.70
2022-09-20T03:29:32.933Z,10.60
2022-09-20T03:32:10.461Z,10.60
2022-09-20T03:35:01.995Z,10.70
2022-09-20T03:37:46.847Z,10.60
2022-09-20T03:40:49.122Z,10.60
2022-09-20T03:43:35.442Z,10.60
2022-09-20T03:46:14.239Z,10.50
2022-09-20T03:49:06.424Z,10.50
2022-09-20T03:52:01.034Z,10.50
2022-09-20T03:55:05.984Z,10.40
2022-09-20T03:58:12.395Z,10.30
2022-09-20T04:01:34.659Z,10.30
2022-09-20T04:04:14.635Z,10.30
2022-09-20T04:07:29.690Z,10.20
2022-09-20T04:10:24.446Z,10.30
2022-09-20T04:13:12.052Z,10.20
2022-09-20T04:16:15.811Z,10.20
2022-09-20T04:19:05.158Z,10.10
2022-09-20T04:21:59.641Z,10.10
2022-09-20T04:24:42.070Z,10.00
2022-09-20T04:27:25.674Z,10.10
2022-09-20T04:30:07.351Z,10.00
2022-09-20T04:33:00.790Z,10.00
2022-09-20T04:35:59.104Z,9.90
2022-09-20T04:38:27.512Z,9.90
2022-09-20T04:41:49.875Z,9.90
2022-09-20T04:44:50.534Z,9.80
2022-09-20T04:48:15.228Z,9.80
2022-09-20T04:51:35.911Z,9.80
2022-09-20T04:54:21.662Z,9.80
2022-09-20T04:57:05.017Z,9.80
2022-09-20T04:59:45.974Z,9.80
2022-09-20T05:02:43.199Z,9.80
2022-09-20T05:05:52.901Z,9.80
2022-09-20T05:08:40.637Z,9.80
2022-09-20T05:11:37.008Z,9.80
2022-09-20T05:14:39.475Z,9.80
2022-09-20T05:17:34.597Z,9.80
2022-09-20T05:20:47.812Z,9.80
2022-09-20T05:23:59.580Z,9.80
2022-09-20T05:27:16.771Z,9.80
2022-09-20T05:29:52.701Z,9.70
2022-09-20T05:33:10.515Z,9.70
2022-09-20T05:36:02.279Z,9.70
2022-09-20T05:38:50.980Z,9.70
2022-09-20T05:41:54.627Z,9.60
2022-09-20T05:44:51.012Z,9.60
2022-09-20T05:47:39.070Z,9.60
2022-09-20T05:50:42.253Z,9.60
2022-09-20T05:54:09.780Z,9.60
2022-09-20T05:57:33.532Z,9.60
2022-09-20T06:00:27.858Z,9.60
2022-09-20T06:03:22.708Z,9.60
2022-09-20T06:06:11.015Z,9.60
2022-09-20T06:08:57.971Z,9.60
2022-09-20T06:12:02.455Z,9.60
2022-09-20T06:15:01.970Z,9.60
2022-09-20T06:17:41.444Z,9.60
2022-09-20T06:20:31.541Z,9.60
2022-09-20T06:23:02.006Z,9.60
2022-09-20T06:25:42.984Z,9.60
2022-09-20T06:28:20.801Z,9.60
2022-09-20T06:30:54.071Z,9.60
2022-09-20T06:33:25.219Z,9.70
2022-09-20T06:35:59.443Z,9.70
2022-09-20T06:39:31.512Z,9.70
2022-09-20T06:42:00.328Z,9.80
2022-09-20T06:44:27.202Z,9.80
2022-09-20T06:46:54.378Z,9.80
2022-09-20T06:49:22.813Z,9.80
2022-09-20T06:51:50.741Z,9.90
2022-09-20T06:54:20.582Z,9.90
2022-09-20T06:56:49.330Z,9.90
2022-09-20T06:59:16.263Z,9.90
2022-09-20T07:01:43.499Z,10.10
2022-09-20T07:04:10.470Z,10.10
2022-09-20T07:06:37.343Z,10.10
2022-09-20T07:09:05.662Z,10.10
2022-09-20T07:11:34.986Z,10.10
2022-09-20T07:14:02.283Z,10.10
2022-09-20T07:16:29.617Z,10.20
2022-09-20T07:18:56.950Z,10.10
2022-09-20T07:21:24.350Z,10.20
2022-09-20T07:23:51.450Z,10.20
2022-09-20T07:26:28.518Z,10.40
2022-09-20T07:28:57.367Z,10.30
2022-09-20T07:31:27.592Z,10.30
2022-09-20T07:33:54.649Z,10.40
2022-09-20T07:36:22.144Z,10.40
2022-09-20T07:38:52.430Z,10.40
2022-09-20T07:41:20.314Z,10.50
2022-09-20T07:43:47.328Z,10.50
2022-09-20T07:46:14.338Z,10.50
2022-09-20T07:48:42.005Z,10.50
2022-09-20T07:51:13.698Z,10.60
2022-09-20T07:53:41.275Z,10.60
2022-09-20T07:56:12.853Z,10.60
2022-09-20T07:58:40.729Z,10.70
2022-09-20T08:01:11.127Z,10.70
2022-09-20T08:03:38.086Z,10.80
2022-09-20T08:06:11.507Z,10.80
2022-09-20T08:08:43.485Z,10.80
2022-09-20T08:11:14.202Z,10.90
2022-09-20T08:16:40.273Z,11.10
2022-09-20T08:19:07.593Z,11.10
2022-09-20T08:21:38.348Z,11.20
2022-09-20T08:24:05.657Z,11.30
2022-09-20T08:26:32.644Z,11.40
2022-09-20T08:29:01.157Z,11.40
2022-09-20T08:31:34.528Z,11.60
2022-09-20T08:34:04.834Z,11.70
2022-09-20T08:36:36.798Z,11.80
2022-09-20T08:41:52.158Z,11.90
2022-09-20T08:44:27.155Z,11.90
2022-09-20T08:47:22.074Z,12.00
2022-09-20T08:49:56.882Z,12.00
2022-09-20T08:52:40.601Z,12.10
2022-09-20T08:55:36.353Z,12.40
2022-09-20T08:58:08.161Z,12.50
2022-09-20T09:00:38.590Z,12.50
2022-09-20T09:03:12.938Z,12.50
2022-09-20T09:05:49.553Z,12.60
2022-09-20T09:08:31.036Z,12.50
2022-09-20T09:11:10.847Z,12.60
2022-09-20T09:14:04.734Z,12.60
2022-09-20T09:16:35.592Z,12.60
2022-09-20T09:19:34.320Z,12.70
2022-09-20T09:22:04.909Z,12.80
2022-09-20T09:24:31.933Z,12.80
2022-09-20T09:27:15.132Z,12.90
2022-09-20T09:29:52.365Z,12.90
2022-09-20T09:32:29.220Z,13.00
2022-09-20T09:34:57.451Z,13.10
2022-09-20T09:37:31.150Z,13.10
2022-09-20T09:40:18.494Z,13.20
2022-09-20T09:43:03.043Z,13.20
2022-09-20T09:45:38.857Z,13.20
2022-09-20T09:48:25.925Z,13.20
2022-09-20T09:51:15.440Z,13.20
2022-09-20T09:53:43.841Z,13.30
2022-09-20T09:56:36.398Z,13.20
2022-09-20T09:59:12.517Z,13.30
2022-09-20T10:01:52.115Z,13.30
2022-09-20T10:04:47.586Z,13.30
2022-09-20T10:07:34.059Z,13.40
2022-09-20T10:10:26.746Z,13.40
2022-09-20T10:13:22.784Z,13.40
2022-09-20T10:16:32.261Z,13.50
2022-09-20T10:19:24.826Z,13.60
2022-09-20T10:22:01.871Z,13.70
2022-09-20T10:24:59.558Z,13.90
2022-09-20T10:27:57.891Z,13.90
2022-09-20T10:31:01.760Z,14.10
2022-09-20T10:33:44.224Z,14.10
2022-09-20T10:36:24.576Z,14.10
2022-09-20T10:39:22.896Z,14.30
2022-09-20T10:42:38.833Z,14.40
2022-09-20T10:49:25.076Z,14.60
2022-09-20T10:52:06.460Z,14.80
2022-09-20T10:54:50.723Z,14.90
2022-09-20T10:57:46.829Z,14.90
2022-09-20T11:00:37.052Z,15.10
2022-09-20T11:03:40.683Z,15.20
2022-09-20T11:06:51.909Z,15.30
2022-09-20T11:09:25.900Z,15.40
2022-09-20T11:12:10.127Z,15.40
2022-09-20T11:14:51.125Z,15.40
2022-09-20T11:17:27.735Z,15.50
2022-09-20T11:20:07.466Z,15.60
2022-09-20T11:22:43.792Z,15.60
2022-09-20T11:25:29.641Z,15.50
2022-09-20T11:28:32.634Z,15.40
2022-09-20T11:31:22.577Z,15.50
2022-09-20T11:34:21.874Z,15.50
2022-09-20T11:37:03.181Z,15.50
2022-09-20T11:39:53.996Z,15.50
2022-09-20T11:42:35.842Z,15.50
2022-09-20T11:45:04.159Z,15.50
2022-09-20T11:47:54.834Z,15.60
2022-09-20T11:50:50.174Z,15.60
2022-09-20T11:53:33.255Z,15.60
2022-09-20T11:56:19.228Z,15.60
2022-09-20T11:58:59.465Z,15.60
2022-09-20T12:01:41.430Z,15.70
2022-09-20T12:04:34.699Z,15.70
2022-09-20T12:07:20.695Z,15.70
2022-09-20T12:09:59.466Z,15.80
2022-09-20T12:12:35.424Z,15.80
2022-09-20T12:15:24.973Z,15.80
2022-09-20T12:17:52.472Z,15.90
2022-09-20T12:20:43.059Z,15.90
2022-09-20T12:23:41.560Z,16.00
2022-09-20T12:26:13.538Z,16.00
2022-09-20T12:28:49.976Z,16.00
2022-09-20T12:31:22.384Z,16.10
2022-09-20T12:34:04.210Z,16.00
2022-09-20T12:36:36.182Z,16.10
2022-09-20T12:39:21.840Z,16.10
2022-09-20T12:42:02.213Z,16.10
2022-09-20T12:44:42.008Z,16.10
2022-09-20T12:47:11.816Z,16.10
2022-09-20T12:50:06.083Z,16.10
2022-09-20T12:52:51.198Z,16.20
2022-09-20T12:55:27.150Z,16.20
2022-09-20T12:58:05.076Z,16.30
2022-09-20T13:00:59.324Z,16.40
2022-09-20T13:03:43.021Z,16.50
2022-09-20T13:06:22.983Z,16.50
2022-09-20T13:09:02.411Z,16.50
2022-09-20T13:11:45.691Z,16.60
2022-09-20T13:14:26.917Z,16.60
2022-09-20T13:17:27.282Z,16.60
2022-09-20T13:19:57.516Z,16.70
2022-09-20T13:22:28.345Z,16.80
2022-09-20T13:25:01.405Z,16.80
2022-09-20T13:27:34.655Z,16.90
2022-09-20T13:30:23.613Z,17.00
2022-09-20T13:32:51.716Z,17.00
2022-09-20T13:35:24.114Z,17.10
2022-09-20T13:37:58.392Z,17.20
2022-09-20T13:40:48.182Z,17.20
2022-09-20T13:43:30.253Z,17.30
2022-09-20T13:46:00.821Z,17.50
2022-09-20T13:48:30.130Z,17.50
2022-09-20T13:50:58.374Z,17.60
2022-09-20T13:53:41.051Z,17.50
2022-09-20T13:56:27.359Z,17.50
2022-09-20T13:58:55.915Z,17.50
2022-09-20T14:01:34.963Z,17.40
2022-09-20T14:04:21.399Z,17.50
2022-09-20T14:06:49.695Z,17.40
2022-09-20T14:09:30.936Z,17.40
2022-09-20T14:11:59.106Z,17.60
2022-09-20T14:14:27.575Z,17.80
2022-09-20T14:16:56.704Z,17.80
2022-09-20T14:19:32.596Z,17.90
2022-09-20T14:22:04.480Z,17.80
2022-09-20T14:24:37.483Z,17.90
2022-09-20T14:27:22.059Z,17.90
2022-09-20T14:29:54.341Z,17.90
2022-09-20T14:32:21.166Z,17.90
2022-09-20T14:35:05.043Z,17.80
2022-09-20T14:37:46.995Z,17.80
2022-09-20T14:40:42.750Z,17.90
2022-09-20T14:43:33.907Z,17.90
2022-09-20T14:46:06.826Z,17.80
2022-09-20T14:48:37.882Z,17.80
2022-09-20T14:51:21.892Z,17.90
2022-09-20T14:54:05.577Z,18.00
2022-09-20T14:56:58.326Z,18.10
2022-09-20T14:59:28.592Z,18.20
2022-09-20T15:02:12.889Z,18.20
2022-09-20T15:04:42.244Z,18.20
2022-09-20T15:07:13.634Z,18.30
2022-09-20T15:09:40.517Z,18.40
2022-09-20T15:12:14.371Z,18.40
2022-09-20T15:14:41.523Z,18.50
2022-09-20T15:17:19.865Z,18.60
2022-09-20T15:19:49.314Z,18.60
2022-09-20T15:22:16.592Z,18.80
2022-09-20T15:24:44.180Z,18.90
2022-09-20T15:27:13.146Z,19.00
2022-09-20T15:29:40.677Z,19.10
2022-09-20T15:32:10.977Z,19.10
2022-09-20T15:34:38.239Z,19.10
2022-09-20T15:37:05.193Z,19.20
2022-09-20T15:39:32.042Z,19.30
2022-09-20T15:41:58.840Z,19.40
2022-09-20T15:44:25.711Z,19.40
2022-09-20T15:46:53.387Z,19.50
2022-09-20T15:49:21.744Z,19.50
2022-09-20T15:51:48.631Z,19.50
2022-09-20T15:54:15.519Z,19.60
2022-09-20T15:56:42.469Z,19.60
2022-09-20T15:59:11.720Z,19.70
2022-09-20T16:01:41.803Z,19.70
2022-09-20T16:04:18.665Z,19.70
2022-09-20T16:06:49.505Z,19.70
2022-09-20T16:09:18.165Z,19.70
2022-09-20T16:11:45.981Z,19.70
2022-09-20T16:14:12.965Z,19.70
2022-09-20T16:16:40.804Z,19.80
2022-09-20T16:19:23.704Z,19.80
2022-09-20T16:21:58.842Z,19.80
2022-09-20T16:24:30.031Z,19.90
2022-09-20T16:26:59.148Z,19.90
2022-09-20T16:29:26.980Z,19.80
2022-09-20T16:31:57.745Z,19.80
2022-09-20T16:34:34.318Z,19.90
2022-09-20T16:37:05.872Z,19.80
2022-09-20T16:39:33.341Z,19.80
2022-09-20T16:42:05.526Z,19.80
2022-09-20T16:44:38.158Z,19.80
2022-09-20T16:47:10.618Z,19.80
2022-09-20T16:49:38.433Z,19.80
2022-09-20T16:52:09.736Z,19.80
2022-09-20T16:54:37.131Z,19.70
2022-09-20T16:57:05.108Z,19.70
2022-09-20T16:59:32.072Z,19.70
2022-09-20T17:01:59.041Z,19.60
2022-09-20T17:04:26.003Z,19.60
2022-09-20T17:06:53.002Z,19.60
2022-09-20T17:09:19.868Z,19.60
2022-09-20T17:11:50.103Z,19.50
2022-09-20T17:14:20.346Z,19.50
2022-09-20T17:16:48.487Z,19.50
2022-09-20T17:19:20.750Z,19.40
2022-09-20T17:21:50.790Z,19.40
2022-09-20T17:24:20.814Z,19.40
2022-09-20T17:26:50.442Z,19.30
2022-09-20T17:29:19.378Z,19.30
2022-09-20T17:31:54.497Z,19.20
2022-09-20T17:34:23.009Z,19.20
2022-09-20T17:36:50.960Z,19.10
2022-09-20T17:39:18.251Z,19.00
2022-09-20T17:41:48.009Z,18.90
2022-09-20T17:44:15.803Z,18.90
2022-09-20T17:46:49.629Z,18.90
2022-09-20T17:49:22.508Z,18.80
2022-09-20T17:51:52.187Z,18.80
2022-09-20T17:54:20.291Z,18.80
2022-09-20T17:56:50.333Z,18.70
2022-09-20T17:59:18.957Z,18.70
2022-09-20T18:01:49.432Z,18.70
2022-09-20T18:04:16.363Z,18.70
2022-09-20T18:06:49.382Z,18.60
2022-09-20T18:09:20.275Z,18.50
2022-09-20T18:11:53.103Z,18.50
2022-09-20T18:14:27.441Z,18.40
2022-09-20T18:16:58.062Z,18.40
2022-09-20T18:19:32.216Z,18.30
2022-09-20T18:22:00.001Z,18.30
2022-09-20T18:24:26.962Z,18.20
2022-09-20T18:26:54.036Z,18.10
2022-09-20T18:29:20.899Z,17.90
2022-09-20T18:31:54.619Z,17.60
2022-09-20T18:34:25.075Z,17.40
2022-09-20T18:36:55.712Z,17.20
2022-09-20T18:39:24.906Z,17.00
2022-09-20T18:41:52.992Z,16.80
2022-09-20T18:44:21.564Z,16.80
2022-09-20T18:46:49.536Z,16.70
2022-09-20T18:49:17.170Z,16.70
2022-09-20T18:51:45.498Z,16.60
2022-09-20T18:54:12.714Z,16.60
2022-09-20T18:56:42.462Z,16.60
2022-09-20T18:59:25.225Z,16.50
2022-09-20T19:01:55.427Z,16.40
2022-09-20T19:04:53.313Z,16.50
2022-09-20T19:07:58.026Z,16.40
2022-09-20T19:10:51.126Z,16.30
2022-09-20T19:13:40.616Z,16.30
2022-09-20T19:16:33.950Z,16.20
2022-09-20T19:19:37.791Z,16.10
2022-09-20T19:22:45.572Z,16.10
2022-09-20T19:25:26.121Z,16.00
2022-09-20T19:27:53.560Z,16.00
2022-09-20T19:30:21.251Z,15.90
2022-09-20T19:32:48.594Z,15.90
2022-09-20T19:35:28.460Z,15.90
2022-09-20T19:38:40.844Z,15.80
2022-09-20T19:42:07.046Z,15.70
2022-09-20T19:44:55.584Z,15.70
2022-09-20T19:47:46.566Z,15.50
2022-09-20T19:50:27.861Z,15.50
2022-09-20T19:52:58.749Z,15.40
2022-09-20T19:55:25.989Z,15.30
2022-09-20T19:57:53.328Z,15.30
2022-09-20T20:00:21.655Z,15.10
2022-09-20T20:02:49.102Z,15.10
2022-09-20T20:05:19.822Z,15.00
2022-09-20T20:07:56.480Z,14.90
2022-09-20T20:11:14.102Z,14.80
2022-09-20T20:14:05.205Z,14.70
2022-09-20T20:16:56.125Z,14.50
2022-09-20T20:19:47.422Z,14.40
2022-09-20T20:23:10.351Z,14.30
2022-09-20T20:25:48.788Z,14.20
2022-09-20T20:28:15.923Z,14.10
2022-09-20T20:30:42.833Z,14.10
2022-09-20T20:33:16.454Z,14.00
2022-09-20T20:35:43.416Z,13.80
2022-09-20T20:38:11.831Z,13.70
2022-09-20T20:40:40.959Z,13.70
2022-09-20T20:43:09.371Z,13.80
2022-09-20T20:45:36.290Z,13.70
2022-09-20T20:48:03.128Z,13.70
2022-09-20T20:50:29.974Z,13.70
2022-09-20T20:52:57.353Z,13.70
2022-09-20T20:55:24.896Z,13.60
2022-09-20T20:57:59.555Z,13.60
2022-09-20T21:00:27.371Z,13.50
2022-09-20T21:03:01.598Z,13.50
2022-09-20T21:05:29.271Z,13.50
2022-09-20T21:07:57.788Z,13.50
2022-09-20T21:10:24.678Z,13.40
2022-09-20T21:12:55.138Z,13.30
2022-09-20T21:15:22.037Z,13.40
2022-09-20T21:17:53.662Z,13.40
2022-09-20T21:20:21.578Z,13.40
2022-09-20T21:22:48.525Z,13.30
2022-09-20T21:25:15.490Z,13.30
2022-09-20T21:27:42.709Z,13.30
2022-09-20T21:30:10.452Z,13.10
2022-09-20T21:32:37.405Z,13.10
2022-09-20T21:35:04.838Z,13.10
2022-09-20T21:37:31.699Z,13.00
2022-09-20T21:39:58.624Z,13.00
2022-09-20T21:42:28.327Z,13.00
2022-09-20T21:44:55.180Z,13.00
2022-09-20T21:47:22.081Z,12.90
2022-09-20T21:49:48.998Z,12.80
2022-09-20T21:52:15.811Z,12.80
2022-09-20T21:54:46.457Z,12.70
2022-09-20T21:57:13.765Z,12.70
2022-09-20T21:59:40.938Z,12.70
2022-09-20T22:02:07.896Z,12.70
2022-09-20T22:04:35.947Z,12.60
2022-09-20T22:07:04.264Z,12.50
2022-09-20T22:09:31.176Z,12.40
2022-09-20T22:11:58.130Z,12.30
2022-09-20T22:14:25.164Z,12.10
2022-09-20T22:16:52.704Z,12.00
2022-09-20T22:19:20.318Z,11.90
2022-09-20T22:21:49.964Z,12.00
2022-09-20T22:24:17.820Z,12.00
2022-09-20T22:26:51.157Z,12.00
2022-09-20T22:29:18.597Z,12.00
2022-09-20T22:31:47.930Z,12.00
2022-09-20T22:34:20.935Z,12.00
2022-09-20T22:36:48.848Z,11.90
2022-09-20T22:39:17.196Z,11.80
2022-09-20T22:41:45.085Z,11.80
2022-09-20T22:44:12.405Z,11.80
2022-09-20T22:46:40.128Z,11.80
2022-09-20T22:49:08.939Z,11.70
2022-09-20T22:51:37.624Z,11.70
2022-09-20T22:54:11.615Z,11.70
2022-09-20T22:56:41.402Z,11.70
2022-09-20T22:59:15.353Z,11.60
2022-09-20T23:01:46.020Z,11.60
2022-09-20T23:04:18.746Z,11.40
2022-09-20T23:06:54.971Z,11.40
2022-09-20T23:09:25.490Z,11.40
2022-09-20T23:11:52.894Z,11.40
2022-09-20T23:14:23.484Z,11.30
2022-09-20T23:16:50.952Z,11.20
2022-09-20T23:19:18.283Z,11.10
2022-09-20T23:21:45.723Z,11.10
2022-09-20T23:24:16.136Z,11.10
2022-09-20T23:26:44.866Z,11.10
2022-09-20T23:29:15.264Z,11.00
2022-09-20T23:31:46.098Z,11.00
2022-09-20T23:34:15.619Z,11.00
2022-09-20T23:36:43.779Z,11.00
2022-09-20T23:39:12.522Z,10.90
2022-09-20T23:41:41.217Z,10.80
2022-09-20T23:44:10.062Z,10.90
2022-09-20T23:46:38.438Z,10.80
2022-09-20T23:49:06.945Z,10.80
2022-09-20T23:51:35.552Z,10.70
2022-09-20T23:54:03.797Z,10.70
2022-09-20T23:56:31.383Z,10.70
2022-09-20T23:58:58.495Z,10.70
